Espyville, Pennsylvania
Current Conditions -  °F | °C
As of 12:53 AM on Thursday 23 Oct 2014 (Local Time) from KGKJ Reporting Station
Overcast Overcast  
Wind Chill: 42°   Ceiling: 3800
Heat Index: 45°   Visibility: 10mi
Dew Point: 41°   Wind: 6mph
Humidity: 86%   Direction: 360°N
Pressure: 30.16"   Gusts: NA
Location:  41.6811°N, 80.4288°W
Report Text: KGKJ 230453Z AUTO 36005KT 10SM OVC038 07/05 A3016 RMK AO2 SLP219 T00720050 400830056 TSNO
Loading
Personal Weather Stations






























Interactive Weather Map New forecast layout! Learn more

10-Day Weather Forecast

Advertisements
Track Severe Weather on mobile